createdAt,value
2023-04-10T00:02:07.720Z,67.18
2023-04-10T00:04:40.123Z,70.57
2023-04-10T00:07:12.661Z,73.10
2023-04-10T00:09:44.734Z,70.50
2023-04-10T00:12:16.957Z,65.10
2023-04-10T00:14:49.070Z,71.38
2023-04-10T00:17:21.278Z,64.85
2023-04-10T00:19:53.424Z,71.28
2023-04-10T00:22:26.152Z,66.97
2023-04-10T00:24:58.205Z,69.38
2023-04-10T00:27:30.378Z,70.15
2023-04-10T00:30:02.938Z,81.20
2023-04-10T00:32:35.171Z,64.38
2023-04-10T00:35:09.366Z,69.90
2023-04-10T00:37:42.001Z,64.05
2023-04-10T00:40:14.162Z,64.45
2023-04-10T00:42:46.864Z,68.40
2023-04-10T00:45:19.178Z,63.40
2023-04-10T00:47:51.985Z,63.42
2023-04-10T00:50:24.801Z,68.70
2023-04-10T00:52:57.820Z,72.28
2023-04-10T00:55:30.550Z,71.75
2023-04-10T00:58:02.967Z,82.97
2023-04-10T01:00:35.424Z,73.68
2023-04-10T01:03:12.152Z,75.00
2023-04-10T01:05:54.721Z,69.75
2023-04-10T01:08:47.942Z,72.53
2023-04-10T01:11:38.838Z,78.28
2023-04-10T01:14:38.644Z,70.00
2023-04-10T01:17:40.672Z,71.10
2023-04-10T01:20:32.144Z,76.68
2023-04-10T01:23:42.346Z,77.10
2023-04-10T01:26:20.103Z,71.70
2023-04-10T01:29:19.899Z,73.28
2023-04-10T01:32:02.585Z,74.07
2023-04-10T01:34:44.915Z,74.88
2023-04-10T01:37:32.122Z,76.07
2023-04-10T01:40:10.075Z,77.38
2023-04-10T01:42:49.172Z,79.20
2023-04-10T01:45:26.200Z,74.10
2023-04-10T01:47:58.690Z,75.10
2023-04-10T01:50:32.135Z,78.00
2023-04-10T01:53:07.332Z,70.25
2023-04-10T01:55:40.173Z,78.32
2023-04-10T01:58:12.850Z,69.55
2023-04-10T02:00:44.938Z,82.20
2023-04-10T02:03:17.266Z,76.65
2023-04-10T02:06:21.660Z,76.10
2023-04-10T02:09:12.881Z,75.40
2023-04-10T02:12:09.596Z,72.65
2023-04-10T02:14:46.012Z,78.85
2023-04-10T02:17:23.852Z,74.97
2023-04-10T02:20:00.303Z,84.18
2023-04-10T02:22:32.828Z,75.10
2023-04-10T02:25:06.507Z,81.03
2023-04-10T02:27:39.366Z,78.30
2023-04-10T02:30:11.905Z,86.15
2023-04-10T02:32:44.325Z,76.25
2023-04-10T02:35:16.509Z,86.47
2023-04-10T02:37:50.966Z,75.47
2023-04-10T02:40:23.171Z,81.45
2023-04-10T02:42:55.250Z,82.43
2023-04-10T02:45:27.337Z,83.40
2023-04-10T02:48:00.357Z,82.88
2023-04-10T02:50:33.026Z,80.00
2023-04-10T02:53:05.062Z,90.88
2023-04-10T02:55:37.127Z,86.00
2023-04-10T02:58:09.178Z,80.78
2023-04-10T03:00:41.216Z,84.80
2023-04-10T03:03:13.366Z,79.72
2023-04-10T03:05:47.268Z,84.80
2023-04-10T03:08:42.696Z,79.32
2023-04-10T03:11:14.741Z,77.50
2023-04-10T03:13:47.754Z,77.57
2023-04-10T03:16:19.894Z,77.30
2023-04-10T03:18:53.115Z,86.28
2023-04-10T03:21:25.181Z,83.25
2023-04-10T03:23:57.302Z,79.03
2023-04-10T03:26:29.391Z,79.85
2023-04-10T03:29:01.462Z,84.45
2023-04-10T03:31:33.541Z,80.75
2023-04-10T03:34:06.017Z,84.90
2023-04-10T03:36:38.359Z,90.97
2023-04-10T03:39:10.471Z,83.97
2023-04-10T03:41:42.527Z,77.93
2023-04-10T03:44:14.580Z,77.75
2023-04-10T03:46:46.685Z,82.00
2023-04-10T03:49:18.785Z,81.18
2023-04-10T03:51:50.888Z,82.63
2023-04-10T03:54:22.955Z,78.18
2023-04-10T03:56:54.964Z,79.10
2023-04-10T03:59:37.830Z,84.63
2023-04-10T04:02:11.238Z,82.65
2023-04-10T04:04:43.579Z,73.22
2023-04-10T04:07:15.640Z,87.72
2023-04-10T04:09:48.152Z,83.32
2023-04-10T04:12:20.209Z,86.25
2023-04-10T04:14:52.367Z,79.78
2023-04-10T04:17:24.511Z,85.70
2023-04-10T04:19:56.652Z,86.03
2023-04-10T04:22:28.656Z,79.72
2023-04-10T04:25:00.775Z,82.60
2023-04-10T04:27:32.819Z,78.93
2023-04-10T04:30:06.641Z,81.20
2023-04-10T04:32:38.972Z,80.22
2023-04-10T04:35:11.278Z,75.53
2023-04-10T04:37:43.392Z,80.57
2023-04-10T04:40:15.590Z,82.00
2023-04-10T04:42:50.650Z,81.90
2023-04-10T04:45:22.843Z,80.53
2023-04-10T04:47:54.895Z,76.70
2023-04-10T04:50:26.975Z,76.93
2023-04-10T04:53:00.607Z,76.13
2023-04-10T04:55:32.674Z,75.72
2023-04-10T04:58:04.813Z,80.90
2023-04-10T05:00:36.869Z,81.28
2023-04-10T05:03:09.174Z,76.32
2023-04-10T05:05:41.365Z,77.88
2023-04-10T05:08:13.450Z,81.80
2023-04-10T05:10:45.587Z,77.72
2023-04-10T05:13:17.775Z,75.63
2023-04-10T05:15:50.038Z,67.95
2023-04-10T05:18:24.068Z,76.35
2023-04-10T05:20:56.260Z,82.63
2023-04-10T05:23:28.388Z,75.85
2023-04-10T05:26:00.506Z,73.35
2023-04-10T05:28:32.644Z,74.55
2023-04-10T05:31:04.985Z,79.32
2023-04-10T05:33:37.045Z,73.75
2023-04-10T05:36:10.600Z,73.53
2023-04-10T05:38:42.669Z,76.55
2023-04-10T05:41:14.763Z,71.28
2023-04-10T05:43:46.800Z,68.38
2023-04-10T05:46:18.930Z,71.70
2023-04-10T05:48:51.687Z,70.97
2023-04-10T05:51:24.155Z,71.47
2023-04-10T05:53:56.310Z,75.07
2023-04-10T05:56:28.413Z,69.55
2023-04-10T05:59:00.558Z,71.18
2023-04-10T06:01:32.594Z,71.25
2023-04-10T06:04:04.925Z,69.53
2023-04-10T06:06:37.189Z,67.80
2023-04-10T06:09:09.301Z,72.43
2023-04-10T06:11:41.640Z,72.90
2023-04-10T06:14:13.671Z,71.28
2023-04-10T06:16:45.776Z,69.78
2023-04-10T06:19:17.862Z,59.20
2023-04-10T06:21:50.312Z,61.83
2023-04-10T06:24:22.595Z,66.15
2023-04-10T06:26:54.668Z,65.10
2023-04-10T06:29:26.726Z,61.97
2023-04-10T06:31:58.815Z,63.22
2023-04-10T06:34:30.900Z,63.88
2023-04-10T06:37:03.038Z,64.82
2023-04-10T06:39:35.131Z,61.97
2023-04-10T06:42:07.204Z,58.78
2023-04-10T06:44:39.303Z,64.15
2023-04-10T06:47:11.677Z,64.95
2023-04-10T06:49:43.910Z,65.15
2023-04-10T06:52:16.953Z,64.32
2023-04-10T06:54:49.286Z,64.70
2023-04-10T06:57:21.516Z,56.13
2023-04-10T06:59:53.583Z,52.97
2023-04-10T07:02:25.836Z,56.50
2023-04-10T07:04:58.176Z,58.10
2023-04-10T07:07:30.508Z,58.13
2023-04-10T07:10:02.577Z,57.05
2023-04-10T07:12:47.317Z,59.13
2023-04-10T07:15:19.391Z,53.30
2023-04-10T07:17:51.514Z,55.88
2023-04-10T07:20:23.544Z,57.40
2023-04-10T07:22:55.665Z,59.95
2023-04-10T07:25:37.556Z,55.63
2023-04-10T07:28:09.749Z,49.58
2023-04-10T07:30:41.987Z,47.97
2023-04-10T07:33:14.254Z,54.83
2023-04-10T07:35:46.652Z,53.28
2023-04-10T07:38:19.312Z,48.45
2023-04-10T07:40:57.668Z,46.08
2023-04-10T07:43:30.205Z,51.70
2023-04-10T07:46:02.323Z,48.20
2023-04-10T07:48:34.428Z,49.97
2023-04-10T07:51:09.426Z,45.08
2023-04-10T07:53:41.631Z,44.78
2023-04-10T07:56:18.896Z,48.70
2023-04-10T07:58:52.089Z,42.17
2023-04-10T08:01:24.362Z,46.72
2023-04-10T08:03:56.749Z,41.50
2023-04-10T08:06:29.120Z,38.78
2023-04-10T08:09:02.181Z,34.05
2023-04-10T08:11:38.319Z,41.95
2023-04-10T08:14:10.960Z,33.47
2023-04-10T08:16:43.117Z,30.48
2023-04-10T08:19:15.564Z,26.75
2023-04-10T08:21:47.621Z,27.77
2023-04-10T08:24:21.642Z,25.85
2023-04-10T08:26:53.696Z,19.10
2023-04-10T08:29:25.783Z,24.88
2023-04-10T08:32:00.762Z,23.27
2023-04-10T08:34:32.829Z,23.23
2023-04-10T08:37:11.894Z,22.13
2023-04-10T08:39:44.110Z,20.73
2023-04-10T08:42:16.220Z,20.55
2023-04-10T08:44:50.528Z,20.55
2023-04-10T08:47:28.339Z,16.65
2023-04-10T08:50:06.980Z,20.35
2023-04-10T08:52:44.651Z,22.17
2023-04-10T08:55:17.310Z,18.17
2023-04-10T08:57:57.986Z,17.85
2023-04-10T09:00:40.052Z,19.67
2023-04-10T09:03:21.650Z,18.17
2023-04-10T09:05:54.958Z,18.05
2023-04-10T09:08:27.086Z,16.17
2023-04-10T09:10:59.175Z,19.20
2023-04-10T09:13:44.121Z,16.63
2023-04-10T09:16:16.479Z,17.77
2023-04-10T09:18:51.581Z,18.58
2023-04-10T09:21:23.690Z,15.85
2023-04-10T09:24:02.145Z,13.82
2023-04-10T09:26:34.416Z,17.05
2023-04-10T09:29:08.108Z,14.07
2023-04-10T09:31:40.686Z,15.00
2023-04-10T09:34:19.391Z,11.10
2023-04-10T09:37:01.969Z,13.00
2023-04-10T09:39:38.637Z,13.93
2023-04-10T09:42:15.165Z,10.23
2023-04-10T09:44:47.231Z,13.18
2023-04-10T09:47:24.483Z,15.70
2023-04-10T09:50:00.909Z,15.02
2023-04-10T09:52:35.161Z,12.52
2023-04-10T09:55:08.924Z,11.45
2023-04-10T09:57:41.202Z,19.65
2023-04-10T10:00:14.854Z,10.45
2023-04-10T10:02:48.836Z,11.10
2023-04-10T10:05:23.073Z,12.65
2023-04-10T10:07:55.620Z,15.20
2023-04-10T10:10:27.799Z,11.05
2023-04-10T10:13:03.856Z,12.88
2023-04-10T10:15:58.742Z,10.70
2023-04-10T10:19:00.223Z,10.48
2023-04-10T10:21:34.470Z,18.23
2023-04-10T10:24:10.067Z,13.07
2023-04-10T10:26:44.497Z,11.27
2023-04-10T10:29:18.821Z,10.57
2023-04-10T10:31:51.253Z,10.70
2023-04-10T10:34:23.623Z,9.18
2023-04-10T10:36:55.672Z,8.82
2023-04-10T10:40:02.406Z,31.35
2023-04-10T10:42:43.409Z,11.40
2023-04-10T10:45:27.163Z,10.15
2023-04-10T10:47:59.620Z,10.80
2023-04-10T10:50:52.589Z,10.70
2023-04-10T10:53:35.346Z,9.85
2023-04-10T10:56:19.853Z,10.68
2023-04-10T10:58:56.139Z,12.77
2023-04-10T11:01:28.835Z,9.98
2023-04-10T11:04:01.094Z,10.32
2023-04-10T11:06:52.676Z,10.45
2023-04-10T11:09:51.599Z,11.45
2023-04-10T11:12:26.091Z,11.13
2023-04-10T11:15:04.703Z,14.00
2023-04-10T11:17:54.612Z,11.35
2023-04-10T11:23:13.304Z,12.45
2023-04-10T11:25:55.953Z,10.90
2023-04-10T11:28:33.924Z,11.73
2023-04-10T11:31:22.784Z,14.90
2023-04-10T11:33:57.806Z,10.25
2023-04-10T11:36:30.791Z,13.88
2023-04-10T11:39:09.208Z,10.82
2023-04-10T11:41:46.699Z,9.48
2023-04-10T11:44:28.034Z,10.00
2023-04-10T11:47:00.239Z,10.80
2023-04-10T11:49:34.803Z,10.20
2023-04-10T11:52:07.328Z,12.93
2023-04-10T11:54:49.256Z,13.32
2023-04-10T11:57:21.675Z,12.50
2023-04-10T11:59:53.742Z,11.20
2023-04-10T12:02:26.157Z,8.50
2023-04-10T12:04:59.576Z,14.70
2023-04-10T12:07:33.047Z,10.80
2023-04-10T12:10:06.392Z,9.75
2023-04-10T12:12:38.581Z,11.55
2023-04-10T12:15:30.326Z,8.95
2023-04-10T12:18:02.917Z,11.43
2023-04-10T12:20:35.081Z,9.20
2023-04-10T12:23:07.266Z,9.45
2023-04-10T12:25:40.806Z,8.80
2023-04-10T12:28:21.739Z,9.93
2023-04-10T12:30:55.368Z,8.73
2023-04-10T12:33:27.545Z,9.68
2023-04-10T12:36:00.093Z,9.02
2023-04-10T12:38:50.532Z,7.93
2023-04-10T12:41:28.846Z,9.15
2023-04-10T12:44:13.745Z,7.10
2023-04-10T12:46:46.306Z,8.52
2023-04-10T12:49:19.092Z,8.10
2023-04-10T12:51:52.737Z,10.30
2023-04-10T12:54:37.246Z,6.22
2023-04-10T12:57:09.446Z,12.50
2023-04-10T12:59:45.009Z,8.32
2023-04-10T13:02:18.998Z,10.55
2023-04-10T13:04:51.588Z,9.15
2023-04-10T13:07:23.736Z,7.82
2023-04-10T13:09:55.894Z,7.30
2023-04-10T13:12:30.115Z,9.30
2023-04-10T13:15:03.063Z,9.70
2023-04-10T13:17:35.504Z,7.13
2023-04-10T13:20:09.993Z,9.23
2023-04-10T13:22:42.130Z,8.40
2023-04-10T13:25:14.248Z,10.35
2023-04-10T13:27:46.319Z,6.45
2023-04-10T13:30:18.432Z,6.60
2023-04-10T13:32:50.522Z,6.40
2023-04-10T13:35:22.748Z,5.68
2023-04-10T13:37:54.810Z,7.97
2023-04-10T13:40:27.271Z,6.43
2023-04-10T13:42:59.561Z,9.57
2023-04-10T13:45:31.664Z,7.25
2023-04-10T13:48:04.246Z,7.05
2023-04-10T13:50:36.455Z,6.25
2023-04-10T13:53:10.434Z,8.55
2023-04-10T13:55:44.008Z,6.32
2023-04-10T13:58:16.212Z,6.22
2023-04-10T14:00:48.295Z,5.13
2023-04-10T14:03:20.522Z,4.68
2023-04-10T14:05:53.375Z,13.57
2023-04-10T14:08:25.520Z,6.40
2023-04-10T14:10:57.685Z,6.43
2023-04-10T14:13:30.613Z,5.07
2023-04-10T14:16:04.379Z,8.68
2023-04-10T14:18:37.525Z,6.07
2023-04-10T14:21:10.279Z,5.90
2023-04-10T14:23:43.171Z,4.82
2023-04-10T14:26:15.531Z,5.72
2023-04-10T14:28:47.598Z,5.22
2023-04-10T14:31:20.652Z,6.80
2023-04-10T14:33:52.935Z,4.57
2023-04-10T14:36:25.695Z,6.10
2023-04-10T14:38:57.720Z,8.13
2023-04-10T14:41:29.978Z,6.95
2023-04-10T14:44:03.306Z,6.85
2023-04-10T14:46:35.481Z,6.93
2023-04-10T14:49:07.548Z,5.97
2023-04-10T14:51:39.668Z,6.13
2023-04-10T14:54:11.851Z,11.80
2023-04-10T14:56:44.381Z,6.25
2023-04-10T15:02:03.349Z,6.78
2023-04-10T15:04:36.220Z,6.65
2023-04-10T15:07:08.380Z,5.90
2023-04-10T15:09:41.085Z,7.57
2023-04-10T15:12:13.198Z,5.93
2023-04-10T15:14:45.298Z,7.18
2023-04-10T15:17:17.567Z,6.32
2023-04-10T15:19:49.680Z,7.07
2023-04-10T15:22:22.011Z,6.82
2023-04-10T15:24:54.082Z,5.45
2023-04-10T15:27:29.013Z,7.88
2023-04-10T15:30:01.342Z,5.47
2023-04-10T15:32:38.010Z,8.15
2023-04-10T15:35:10.391Z,5.57
2023-04-10T15:37:42.649Z,6.82
2023-04-10T15:40:14.746Z,6.43
2023-04-10T15:42:46.821Z,6.55
2023-04-10T15:45:19.025Z,5.78
2023-04-10T15:47:51.180Z,6.38
2023-04-10T15:50:23.273Z,7.22
2023-04-10T15:52:55.381Z,6.30
2023-04-10T15:55:27.537Z,6.35
2023-04-10T15:58:02.251Z,5.45
2023-04-10T16:00:34.776Z,6.38
2023-04-10T16:03:07.138Z,6.50
2023-04-10T16:05:41.460Z,6.30
2023-04-10T16:08:13.593Z,6.30
2023-04-10T16:10:47.556Z,4.55
2023-04-10T16:13:19.697Z,5.75
2023-04-10T16:15:52.309Z,7.63
2023-04-10T16:18:24.612Z,6.18
2023-04-10T16:20:56.686Z,5.70
2023-04-10T16:23:28.811Z,5.35
2023-04-10T16:26:01.037Z,5.80
2023-04-10T16:28:33.173Z,5.57
2023-04-10T16:31:05.729Z,6.18
2023-04-10T16:33:37.813Z,6.93
2023-04-10T16:36:10.190Z,7.68
2023-04-10T16:38:42.375Z,4.90
2023-04-10T16:41:21.071Z,8.18
2023-04-10T16:43:53.326Z,5.78
2023-04-10T16:46:26.965Z,7.63
2023-04-10T16:48:59.098Z,4.82
2023-04-10T16:51:31.375Z,4.93
2023-04-10T16:54:03.963Z,5.70
2023-04-10T16:56:36.069Z,4.55
2023-04-10T16:59:08.206Z,5.07
2023-04-10T17:01:40.399Z,4.90
2023-04-10T17:04:13.608Z,4.57
2023-04-10T17:06:45.694Z,6.00
2023-04-10T17:09:17.960Z,5.18
2023-04-10T17:11:50.276Z,4.65
2023-04-10T17:14:22.387Z,5.30
2023-04-10T17:16:54.533Z,5.28
2023-04-10T17:19:26.619Z,7.05
2023-04-10T17:21:58.790Z,6.72
2023-04-10T17:24:31.765Z,5.65
2023-04-10T17:27:03.934Z,3.90
2023-04-10T17:29:39.976Z,5.72
2023-04-10T17:32:12.080Z,7.72
2023-04-10T17:34:44.480Z,6.97
2023-04-10T17:37:16.626Z,5.95
2023-04-10T17:39:51.899Z,4.50
2023-04-10T17:42:25.924Z,3.40
2023-04-10T17:44:58.380Z,4.60
2023-04-10T17:47:30.580Z,7.80
2023-04-10T17:50:04.228Z,5.38
2023-04-10T17:52:52.541Z,6.20
2023-04-10T17:55:24.944Z,5.15
2023-04-10T17:58:00.036Z,4.30
2023-04-10T18:00:35.446Z,4.75
2023-04-10T18:03:07.773Z,4.15
2023-04-10T18:05:40.088Z,3.83
2023-04-10T18:08:14.385Z,5.95
2023-04-10T18:10:46.796Z,6.18
2023-04-10T18:13:19.028Z,5.97
2023-04-10T18:15:51.303Z,5.53
2023-04-10T18:18:54.989Z,6.30
2023-04-10T18:21:28.165Z,12.52
2023-04-10T18:24:00.597Z,6.88
2023-04-10T18:26:35.438Z,7.80
2023-04-10T18:29:08.006Z,7.28
2023-04-10T18:31:40.222Z,5.55
2023-04-10T18:34:12.678Z,4.80
2023-04-10T18:36:44.989Z,5.22
2023-04-10T18:39:17.076Z,5.25
2023-04-10T18:41:49.233Z,4.88
2023-04-10T18:44:21.294Z,6.63
2023-04-10T18:47:22.687Z,5.35
2023-04-10T18:50:23.646Z,3.88
2023-04-10T18:52:56.186Z,7.07
2023-04-10T18:55:28.452Z,5.13
2023-04-10T18:58:01.038Z,5.72
2023-04-10T19:00:34.361Z,7.07
2023-04-10T19:03:06.764Z,4.05
2023-04-10T19:05:49.508Z,4.40
2023-04-10T19:08:21.779Z,5.10
2023-04-10T19:10:54.017Z,6.15
2023-04-10T19:57:30.483Z,4.47
2023-04-10T20:22:27.195Z,11.05
2023-04-10T20:29:22.687Z,10.55
2023-04-10T20:56:47.979Z,10.43
2023-04-10T21:02:44.122Z,8.85
2023-04-10T21:05:31.781Z,8.40
2023-04-10T21:15:59.276Z,9.02
2023-04-10T21:29:39.482Z,7.13
2023-04-10T21:32:11.897Z,8.10
2023-04-10T21:34:44.338Z,6.32
2023-04-10T21:37:19.543Z,11.05
2023-04-10T21:39:52.017Z,14.13
2023-04-10T21:42:24.472Z,15.80
2023-04-10T21:44:58.102Z,16.55
2023-04-10T21:47:30.852Z,9.23
2023-04-10T21:50:03.193Z,9.80
2023-04-10T21:52:35.650Z,8.80
2023-04-10T21:55:08.941Z,10.57
2023-04-10T21:57:41.300Z,7.82
2023-04-10T22:00:14.737Z,10.98
2023-04-10T22:02:47.241Z,11.55
2023-04-10T22:05:19.735Z,7.80
2023-04-10T22:07:52.590Z,17.60
2023-04-10T22:10:25.042Z,20.85
2023-04-10T22:12:57.510Z,10.48
2023-04-10T22:15:29.709Z,9.02
2023-04-10T22:18:01.997Z,12.48
2023-04-10T22:20:34.588Z,10.35
2023-04-10T22:23:07.023Z,8.63
2023-04-10T22:25:39.304Z,10.63
2023-04-10T22:28:11.651Z,11.85
2023-04-10T22:30:43.959Z,7.28
2023-04-10T22:33:16.408Z,10.10
2023-04-10T22:35:49.391Z,8.20
2023-04-10T22:38:21.672Z,9.27
2023-04-10T22:40:55.511Z,18.50
2023-04-10T22:43:28.022Z,6.47
2023-04-10T22:46:00.786Z,11.48
2023-04-10T22:48:36.418Z,11.02
2023-04-10T22:51:12.995Z,8.15
2023-04-10T22:53:45.265Z,10.23
2023-04-10T22:56:18.821Z,10.75
2023-04-10T22:58:51.229Z,7.80
2023-04-10T23:01:23.563Z,12.18
2023-04-10T23:03:55.909Z,8.02
2023-04-10T23:06:28.269Z,8.00
2023-04-10T23:09:00.601Z,7.28
2023-04-10T23:11:33.443Z,6.35
2023-04-10T23:14:05.809Z,6.05
2023-04-10T23:16:38.344Z,5.60
2023-04-10T23:19:10.650Z,11.77
2023-04-10T23:21:42.850Z,5.57
2023-04-10T23:24:15.170Z,4.97
2023-04-10T23:26:47.515Z,7.90
2023-04-10T23:29:19.972Z,7.60
2023-04-10T23:31:52.171Z,7.72
2023-04-10T23:34:24.439Z,6.97
2023-04-10T23:36:57.214Z,10.35
2023-04-10T23:39:29.648Z,7.47
2023-04-10T23:42:02.479Z,7.95
2023-04-10T23:44:34.765Z,7.20
2023-04-10T23:47:07.361Z,8.30
2023-04-10T23:49:39.909Z,7.38
2023-04-10T23:52:12.204Z,9.27
2023-04-10T23:54:44.578Z,9.52
2023-04-10T23:57:17.093Z,9.95
2023-04-10T23:59:49.783Z,8.55
